PWSweather.com
Personal Weather Stations
Station Observations

AwhituWaiuku, CA 268400

Lat: -37.058, Lon: -174.6346

Elevation: 250

Station Type: Personal

http://www.weather-display.com/windy/gb/grahamsbeach.htm

High Low Average
Temperature 57.4°F14.1°C 49.1°F9.5°C 53.3°F11.8°C
Dew Point 52.8°F11.6°C 36.6°F2.6°C 46.3°F7.9°C
Winds 20.8 mph 33.5 kmh 4.0 mph 6.4 kmh 12.0 mph SW19.3 kmh SW
Wind Gusts 28.0 mph45.1 kmh 6.0 mph9.7 kmh 17.0 mph27.4 kmh
Humidity 98% 61% 78%
Pressure 29.81 in1009.5 mb 29.73 in1006.8 mb -
Precipitation 0.00 in0.0 mm - -
Hour Temp Dew Point Humidity Winds Wind Gusts Pressure Precip Precip Rate Daily Precip Total
12:00 AM 49.5°F9.7°C 37.4°F3.0°C 63% 13.8 mph SSE22.2 kmh SSE 18.0 mph29.0 kmh 29.76 in1007.8 mb 0.00 in0.0 mm 0.00 in/hr0.0 mm/hr 0.00 in0.0 mm
12:30 AM 49.1°F9.5°C 37.0°F2.8°C 63% 8.8 mph WSW14.2 kmh WSW 14.0 mph22.5 kmh 29.76 in1007.8 mb 0.00 in0.0 mm 0.00 in/hr0.0 mm/hr 0.00 in0.0 mm
01:00 AM 49.6°F9.8°C 36.6°F2.6°C 61% 8.7 mph SW14.0 kmh SW 11.0 mph17.7 kmh 29.76 in1007.8 mb 0.00 in0.0 mm 0.00 in/hr0.0 mm/hr 0.00 in0.0 mm
01:30 AM 49.9°F9.9°C 37.0°F2.8°C 61% 13.3 mph SW21.4 kmh SW 22.0 mph35.4 kmh 29.76 in1007.8 mb 0.00 in0.0 mm 0.00 in/hr0.0 mm/hr 0.00 in0.0 mm
02:00 AM 50.2°F10.1°C 39.3°F4.1°C 66% 10.8 mph SSW17.4 kmh SSW 13.0 mph20.9 kmh 29.76 in1007.8 mb 0.00 in0.0 mm 0.00 in/hr0.0 mm/hr 0.00 in0.0 mm
02:30 AM 50.0°F10.0°C 40.2°F4.6°C 69% 16.4 mph WSW26.4 kmh WSW 21.0 mph33.8 kmh 29.75 in1007.5 mb 0.00 in0.0 mm 0.00 in/hr0.0 mm/hr 0.00 in0.0 mm
03:00 AM 50.3°F10.2°C 42.7°F5.9°C 75% 10.8 mph WSW17.4 kmh WSW 16.0 mph25.7 kmh 29.74 in1007.1 mb 0.00 in0.0 mm 0.00 in/hr0.0 mm/hr 0.00 in0.0 mm
03:30 AM 50.9°F10.5°C 40.3°F4.6°C 67% 11.1 mph SSW17.9 kmh SSW 17.0 mph27.4 kmh 29.73 in1006.8 mb 0.00 in0.0 mm 0.00 in/hr0.0 mm/hr 0.00 in0.0 mm
04:00 AM 50.8°F10.4°C 40.6°F4.8°C 68% 13.4 mph SW21.6 kmh SW 20.0 mph32.2 kmh 29.73 in1006.8 mb 0.00 in0.0 mm 0.00 in/hr0.0 mm/hr 0.00 in0.0 mm
04:30 AM 50.9°F10.5°C 40.7°F4.8°C 68% 12.3 mph SW19.8 kmh SW 24.0 mph38.6 kmh 29.74 in1007.1 mb 0.00 in0.0 mm 0.00 in/hr0.0 mm/hr 0.00 in0.0 mm
05:00 AM 51.5°F10.8°C 40.9°F4.9°C 67% 11.6 mph WSW18.7 kmh WSW 17.0 mph27.4 kmh 29.74 in1007.1 mb 0.00 in0.0 mm 0.00 in/hr0.0 mm/hr 0.00 in0.0 mm
05:30 AM 51.8°F11.0°C 39.6°F4.2°C 63% 17.1 mph SW27.5 kmh SW 26.0 mph41.8 kmh 29.73 in1006.8 mb 0.00 in0.0 mm 0.00 in/hr0.0 mm/hr 0.00 in0.0 mm
06:00 AM 51.8°F11.0°C 42.3°F5.7°C 70% 12.9 mph SW20.8 kmh SW 16.0 mph25.7 kmh 29.74 in1007.1 mb 0.00 in0.0 mm 0.00 in/hr0.0 mm/hr 0.00 in0.0 mm
06:30 AM 52.3°F11.3°C 40.9°F4.9°C 65% 18.4 mph WSW29.6 kmh WSW 25.0 mph40.2 kmh 29.75 in1007.5 mb 0.00 in0.0 mm 0.00 in/hr0.0 mm/hr 0.00 in0.0 mm
07:00 AM 52.0°F11.1°C 43.3°F6.3°C 72% 14.6 mph SW23.5 kmh SW 21.0 mph33.8 kmh 29.76 in1007.8 mb 0.00 in0.0 mm 0.00 in/hr0.0 mm/hr 0.00 in0.0 mm
07:30 AM 52.3°F11.3°C 44.6°F7.0°C 75% 10.7 mph WSW17.2 kmh WSW 15.0 mph24.1 kmh 29.76 in1007.8 mb 0.00 in0.0 mm 0.00 in/hr0.0 mm/hr 0.00 in0.0 mm
08:00 AM 52.7°F11.5°C 45.0°F7.2°C 75% 13.7 mph SSW22.0 kmh SSW 18.0 mph29.0 kmh 29.77 in1008.1 mb 0.00 in0.0 mm 0.00 in/hr0.0 mm/hr 0.00 in0.0 mm
08:30 AM 53.2°F11.8°C 44.4°F6.9°C 72% 11.7 mph SW18.8 kmh SW 22.0 mph35.4 kmh 29.77 in1008.1 mb 0.00 in0.0 mm 0.00 in/hr0.0 mm/hr 0.00 in0.0 mm
09:00 AM 54.3°F12.4°C 45.4°F7.4°C 72% 12.5 mph WSW20.1 kmh WSW 24.0 mph38.6 kmh 29.77 in1008.1 mb 0.00 in0.0 mm 0.00 in/hr0.0 mm/hr 0.00 in0.0 mm
09:30 AM 55.2°F12.9°C 42.4°F5.8°C 62% 14.0 mph SW22.5 kmh SW 22.0 mph35.4 kmh 29.77 in1008.1 mb 0.00 in0.0 mm 0.00 in/hr0.0 mm/hr 0.00 in0.0 mm
10:01 AM 55.9°F13.3°C 42.7°F5.9°C 61% 15.8 mph SW25.4 kmh SW 25.0 mph40.2 kmh 29.77 in1008.1 mb 0.00 in0.0 mm 0.00 in/hr0.0 mm/hr 0.00 in0.0 mm
10:30 AM 55.8°F13.2°C 43.4°F6.3°C 63% 14.7 mph SW23.7 kmh SW 22.0 mph35.4 kmh 29.77 in1008.1 mb 0.00 in0.0 mm 0.00 in/hr0.0 mm/hr 0.00 in0.0 mm
11:01 AM 56.0°F13.3°C 44.0°F6.7°C 64% 17.6 mph SW28.3 kmh SW 22.0 mph35.4 kmh 29.77 in1008.1 mb 0.00 in0.0 mm 0.00 in/hr0.0 mm/hr 0.00 in0.0 mm
11:30 AM 56.0°F13.3°C 45.6°F7.6°C 68% 17.5 mph SSW28.2 kmh SSW 28.0 mph45.1 kmh 29.77 in1008.1 mb 0.00 in0.0 mm 0.00 in/hr0.0 mm/hr 0.00 in0.0 mm
12:00 PM 55.8°F13.2°C 48.3°F9.1°C 76% 17.6 mph SW28.3 kmh SW 23.0 mph37.0 kmh 29.77 in1008.1 mb 0.00 in0.0 mm 0.00 in/hr0.0 mm/hr 0.00 in0.0 mm
12:30 PM 55.7°F13.2°C 47.9°F8.8°C 75% 15.3 mph SW24.6 kmh SW 21.0 mph33.8 kmh 29.76 in1007.8 mb 0.00 in0.0 mm 0.00 in/hr0.0 mm/hr 0.00 in0.0 mm
01:01 PM 56.8°F13.8°C 48.3°F9.1°C 73% 20.8 mph SSW33.5 kmh SSW 23.0 mph37.0 kmh 29.75 in1007.5 mb 0.00 in0.0 mm 0.00 in/hr0.0 mm/hr 0.00 in0.0 mm
01:30 PM 55.6°F13.1°C 49.2°F9.6°C 79% 16.4 mph SE26.4 kmh SE 21.0 mph33.8 kmh 29.74 in1007.1 mb 0.00 in0.0 mm 0.00 in/hr0.0 mm/hr 0.00 in0.0 mm
02:00 PM 56.1°F13.4°C 52.6°F11.4°C 88% 13.8 mph WSW22.2 kmh WSW 18.0 mph29.0 kmh 29.73 in1006.8 mb 0.00 in0.0 mm 0.00 in/hr0.0 mm/hr 0.00 in0.0 mm
02:30 PM 57.4°F14.1°C 51.6°F10.9°C 81% 12.6 mph WSW20.3 kmh WSW 18.0 mph29.0 kmh 29.73 in1006.8 mb 0.00 in0.0 mm 0.00 in/hr0.0 mm/hr 0.00 in0.0 mm
03:01 PM 57.0°F13.9°C 50.5°F10.3°C 79% 17.9 mph SW28.8 kmh SW 23.0 mph37.0 kmh 29.73 in1006.8 mb 0.00 in0.0 mm 0.00 in/hr0.0 mm/hr 0.00 in0.0 mm
03:30 PM 56.4°F13.6°C 51.3°F10.7°C 83% 9.2 mph WSW14.8 kmh WSW 10.0 mph16.1 kmh 29.73 in1006.8 mb 0.00 in0.0 mm 0.00 in/hr0.0 mm/hr 0.00 in0.0 mm
04:01 PM 55.9°F13.3°C 51.4°F10.8°C 85% 11.2 mph SW18.0 kmh SW 15.0 mph24.1 kmh 29.73 in1006.8 mb 0.00 in0.0 mm 0.00 in/hr0.0 mm/hr 0.00 in0.0 mm
04:30 PM 55.2°F12.9°C 51.7°F10.9°C 88% 8.6 mph SW13.8 kmh SW 10.0 mph16.1 kmh 29.73 in1006.8 mb 0.00 in0.0 mm 0.00 in/hr0.0 mm/hr 0.00 in0.0 mm
05:00 PM 54.9°F12.7°C 51.7°F10.9°C 89% 8.3 mph SW13.4 kmh SW 16.0 mph25.7 kmh 29.74 in1007.1 mb 0.00 in0.0 mm 0.00 in/hr0.0 mm/hr 0.00 in0.0 mm
05:30 PM 54.2°F12.3°C 50.4°F10.2°C 87% 9.4 mph SW15.1 kmh SW 15.0 mph24.1 kmh 29.75 in1007.5 mb 0.00 in0.0 mm 0.00 in/hr0.0 mm/hr 0.00 in0.0 mm
06:00 PM 54.0°F12.2°C 49.3°F9.6°C 84% 12.4 mph SW20.0 kmh SW 16.0 mph25.7 kmh 29.76 in1007.8 mb 0.00 in0.0 mm 0.00 in/hr0.0 mm/hr 0.00 in0.0 mm
06:30 PM 53.4°F11.9°C 51.7°F10.9°C 94% 8.3 mph WSW13.4 kmh WSW 11.0 mph17.7 kmh 29.77 in1008.1 mb 0.00 in0.0 mm 0.00 in/hr0.0 mm/hr 0.00 in0.0 mm
07:00 PM 53.0°F11.7°C 52.2°F11.2°C 97% 9.7 mph WSW15.6 kmh WSW 13.0 mph20.9 kmh 29.78 in1008.5 mb 0.00 in0.0 mm 0.00 in/hr0.0 mm/hr 0.00 in0.0 mm
07:30 PM 53.0°F11.7°C 52.5°F11.4°C 98% 7.5 mph SW12.1 kmh SW 10.0 mph16.1 kmh 29.78 in1008.5 mb 0.00 in0.0 mm 0.00 in/hr0.0 mm/hr 0.00 in0.0 mm
08:00 PM 52.7°F11.5°C 52.2°F11.2°C 98% 6.7 mph SW10.8 kmh SW 8.0 mph12.9 kmh 29.79 in1008.8 mb 0.00 in0.0 mm 0.00 in/hr0.0 mm/hr 0.00 in0.0 mm
08:30 PM 53.4°F11.9°C 52.8°F11.6°C 98% 11.2 mph SW18.0 kmh SW 15.0 mph24.1 kmh 29.79 in1008.8 mb 0.00 in0.0 mm 0.00 in/hr0.0 mm/hr 0.00 in0.0 mm
09:00 PM 52.7°F11.5°C 51.6°F10.9°C 96% 7.2 mph SW11.6 kmh SW 9.0 mph14.5 kmh 29.79 in1008.8 mb 0.00 in0.0 mm 0.00 in/hr0.0 mm/hr 0.00 in0.0 mm
09:30 PM 52.3°F11.3°C 51.8°F11.0°C 98% 8.1 mph WSW13.0 kmh WSW 10.0 mph16.1 kmh 29.80 in1009.1 mb 0.00 in0.0 mm 0.00 in/hr0.0 mm/hr 0.00 in0.0 mm
10:00 PM 52.6°F11.4°C 52.1°F11.2°C 98% 5.1 mph SW8.2 kmh SW 7.0 mph11.3 kmh 29.80 in1009.1 mb 0.00 in0.0 mm 0.00 in/hr0.0 mm/hr 0.00 in0.0 mm
10:30 PM 52.6°F11.4°C 52.0°F11.1°C 98% 4.0 mph SW6.4 kmh SW 7.0 mph11.3 kmh 29.80 in1009.1 mb 0.00 in0.0 mm 0.00 in/hr0.0 mm/hr 0.00 in0.0 mm
11:00 PM 52.1°F11.2°C 51.6°F10.9°C 98% 4.3 mph SW6.9 kmh SW 6.0 mph9.7 kmh 29.80 in1009.1 mb 0.00 in0.0 mm 0.00 in/hr0.0 mm/hr 0.00 in0.0 mm
11:30 PM 52.0°F11.1°C 51.5°F10.8°C 98% 4.3 mph SW6.9 kmh SW 6.0 mph9.7 kmh 29.81 in1009.5 mb 0.00 in0.0 mm 0.00 in/hr0.0 mm/hr 0.00 in0.0 mm